Etusivu
METAR-TAF:

METAR-TAF

Lentoasemat :

Platteville, Wisconsin, Yhdysvallat

Leveyspiiri: 42-41-22N, Pituuspiiri: 090-26-40W, korkeus merenpinnasta: 312 m

Tämänhetkinen sää

Tämä raportti tehtiin 20 minuuttia sitten, kello 10.55 UTC
Tuuli 8 kn pohjoisen/luoteesta
Lämpötila -3°C
Kosteus 100%
Ilmanpaine 1018 hPa
Näkyvyys: 16.1 km
Pilvistä 600 ft:n korkeudessa

METAR: KPVB 281055Z AUTO 34008KT 10SM OVC006 M03/M03 A3007 RMK AO1 T10351035

Aika: 05:15 (11:15 UTC)


TAF: puuttuu

Säähavainnot ja -ennusteet yli 4000 lentoasemalta (METAR- ja TAF-raportit).

Käytössä olevat sääasemat on merkitty karttaan keltaisilla ja punaisilla pisteillä.

Aseta hiiri pisteen päälle nähdäksesi sääaseman nimen.

Klikkaa sitten nähdäksesi säähavainnot ja -ennusteet.

Kartan vaihtaminen: klikkaa mustalla rastilla varustettuja vihreitä pisteitä, niin voit zoomata sisään; viivalla varustettua vihreää pistettä, niin voit zoomata ulos tai vihreitä nuolia, niin pääset viereisille kartoille.


METAR-TAF: